createdAt,value
2019-04-01T00:02:58.586Z,42.80
2019-04-01T00:08:58.581Z,48.10
2019-04-01T00:14:58.620Z,48.30
2019-04-01T00:20:58.559Z,46.20
2019-04-01T00:26:58.589Z,46.00
2019-04-01T00:32:58.595Z,46.90
2019-04-01T00:38:58.552Z,45.90
2019-04-01T00:44:58.582Z,52.10
2019-04-01T00:50:58.577Z,51.00
2019-04-01T00:56:59.687Z,52.50
2019-04-01T01:02:58.563Z,50.40
2019-04-01T01:08:58.606Z,53.40
2019-04-01T01:14:58.583Z,49.30
2019-04-01T01:20:58.796Z,55.50
2019-04-01T01:26:58.612Z,53.40
2019-04-01T01:32:58.588Z,53.50
2019-04-01T01:38:58.574Z,56.30
2019-04-01T01:44:58.565Z,56.40
2019-04-01T01:50:58.605Z,53.40
2019-04-01T01:56:58.606Z,58.50
2019-04-01T02:02:58.744Z,56.50
2019-04-01T02:08:58.612Z,62.20
2019-04-01T02:14:58.625Z,55.10
2019-04-01T02:20:58.605Z,55.50
2019-04-01T02:26:58.619Z,56.10
2019-04-01T02:32:58.631Z,56.20
2019-04-01T02:38:58.638Z,55.70
2019-04-01T02:44:58.653Z,56.50
2019-04-01T02:50:58.653Z,57.30
2019-04-01T02:56:58.647Z,60.70
2019-04-01T03:02:58.625Z,59.00
2019-04-01T03:08:58.627Z,61.30
2019-04-01T03:14:58.631Z,59.10
2019-04-01T03:20:58.668Z,56.70
2019-04-01T03:26:58.772Z,56.70
2019-04-01T03:32:58.627Z,59.30
2019-04-01T03:38:58.682Z,55.40
2019-04-01T03:44:58.709Z,58.20
2019-04-01T03:50:58.674Z,60.20
2019-04-01T03:56:58.710Z,57.60
2019-04-01T04:02:58.670Z,57.10
2019-04-01T04:09:01.903Z,57.60
2019-04-01T04:14:58.662Z,62.90
2019-04-01T04:20:58.674Z,56.40
2019-04-01T04:26:58.703Z,56.30
2019-04-01T04:32:58.716Z,56.70
2019-04-01T04:38:58.699Z,58.60
2019-04-01T04:44:58.693Z,57.90
2019-04-01T04:50:58.670Z,60.10
2019-04-01T04:56:58.656Z,57.70
2019-04-01T05:02:58.710Z,57.50
2019-04-01T05:08:58.696Z,56.40
2019-04-01T05:14:58.705Z,56.70
2019-04-01T05:20:58.672Z,54.80
2019-04-01T05:26:58.685Z,58.00
2019-04-01T05:32:58.678Z,54.10
2019-04-01T05:38:58.668Z,51.80
2019-04-01T05:44:58.728Z,53.40
2019-04-01T05:50:58.793Z,53.50
2019-04-01T05:56:58.732Z,51.90
2019-04-01T06:02:58.743Z,51.60
2019-04-01T06:08:58.671Z,50.60
2019-04-01T06:14:58.707Z,55.90
2019-04-01T06:20:58.739Z,49.60
2019-04-01T06:26:58.756Z,52.70
2019-04-01T06:32:58.728Z,51.80
2019-04-01T06:38:58.708Z,48.50
2019-04-01T06:44:58.751Z,48.90
2019-04-01T06:50:58.765Z,50.30
2019-04-01T06:56:58.725Z,44.90
2019-04-01T07:02:58.774Z,51.70
2019-04-01T07:08:58.732Z,48.60
2019-04-01T07:14:58.739Z,46.50
2019-04-01T07:20:58.753Z,46.00
2019-04-01T07:26:58.766Z,48.90
2019-04-01T07:32:58.771Z,44.70
2019-04-01T07:38:58.751Z,43.10
2019-04-01T07:44:58.729Z,45.20
2019-04-01T07:50:58.809Z,46.20
2019-04-01T07:56:58.780Z,44.20
2019-04-01T08:02:58.780Z,43.40
2019-04-01T12:40:17.398Z,27.10
2019-04-01T12:46:17.129Z,26.40
2019-04-01T12:52:18.051Z,24.70
2019-04-01T12:58:17.829Z,25.40
2019-04-01T13:04:17.753Z,25.60
2019-04-01T13:10:17.099Z,30.40
2019-04-01T13:16:17.102Z,29.90
2019-04-01T13:22:17.109Z,25.20
2019-04-01T13:28:17.116Z,27.70
2019-04-01T13:34:20.098Z,27.30
2019-04-01T13:40:19.558Z,27.30
2019-04-01T13:46:17.267Z,25.20
2019-04-01T13:52:17.183Z,27.20
2019-04-01T13:58:17.743Z,24.70
2019-04-01T14:04:17.150Z,25.00
2019-04-01T14:10:19.578Z,23.10
2019-04-01T14:16:17.185Z,25.70
2019-04-01T14:22:17.146Z,22.80
2019-04-01T14:28:17.151Z,27.00
2019-04-01T14:34:23.222Z,28.10
2019-04-01T14:40:17.188Z,27.10
2019-04-01T14:46:17.239Z,30.60
2019-04-01T14:52:25.783Z,31.10
2019-04-01T14:58:17.574Z,29.90
2019-04-01T15:04:17.338Z,28.20
2019-04-01T15:10:17.218Z,30.50
2019-04-01T15:16:17.328Z,28.10
2019-04-01T15:22:17.350Z,28.90
2019-04-01T15:28:19.381Z,32.00
2019-04-01T15:34:17.258Z,27.30
2019-04-01T15:40:18.069Z,27.80
2019-04-01T15:46:19.349Z,29.50
2019-04-01T15:52:17.233Z,27.40
2019-04-01T15:58:17.271Z,29.00
2019-04-01T16:04:17.279Z,29.70
2019-04-01T16:10:17.246Z,29.30
2019-04-01T16:16:17.279Z,29.30
2019-04-01T16:22:17.797Z,28.30
2019-04-01T16:28:17.344Z,28.50
2019-04-01T16:34:17.255Z,26.10
2019-04-01T16:40:18.142Z,25.90
2019-04-01T16:46:17.269Z,26.10
2019-04-01T16:52:17.262Z,24.70
2019-04-01T16:58:17.275Z,24.30
2019-04-01T17:04:17.483Z,25.10
2019-04-01T17:10:17.271Z,23.60
2019-04-01T17:16:17.312Z,28.70
2019-04-01T17:22:17.323Z,24.10
2019-04-01T17:28:17.353Z,25.40
2019-04-01T17:34:18.314Z,24.10
2019-04-01T17:40:17.363Z,23.20
2019-04-01T17:46:17.381Z,23.30
2019-04-01T17:52:17.334Z,22.70
2019-04-01T17:58:17.382Z,25.00
2019-04-01T18:04:17.314Z,22.60
2019-04-01T18:10:17.307Z,21.50
2019-04-01T18:16:17.373Z,22.90
2019-04-01T18:22:17.314Z,21.00
2019-04-01T18:28:17.331Z,23.70
2019-04-01T18:34:17.337Z,23.90
2019-04-01T18:40:31.435Z,21.20
2019-04-01T18:46:20.798Z,19.00
2019-04-01T18:52:17.359Z,21.50
2019-04-01T18:58:17.333Z,25.60
2019-04-01T19:04:17.342Z,22.20
2019-04-01T19:10:17.405Z,23.50
2019-04-01T19:16:17.347Z,24.40
2019-04-01T19:22:17.362Z,23.50
2019-04-01T19:28:18.246Z,22.90
2019-04-01T19:34:17.432Z,32.70
2019-04-01T19:40:20.358Z,25.20
2019-04-01T19:46:17.423Z,25.30
2019-04-01T19:52:17.398Z,23.10
2019-04-01T19:58:17.391Z,25.30
2019-04-01T20:04:17.440Z,25.90
2019-04-01T20:10:17.728Z,23.80
2019-04-01T20:16:17.731Z,22.20
2019-04-01T20:22:17.413Z,24.40
2019-04-01T20:28:17.387Z,22.90
2019-04-01T20:34:20.013Z,25.80
2019-04-01T20:40:17.512Z,26.50
2019-04-01T20:46:17.477Z,25.30
2019-04-01T20:52:17.412Z,26.10
2019-04-01T20:58:17.404Z,30.50
2019-04-01T21:04:17.404Z,25.50
2019-04-01T21:10:17.493Z,30.80
2019-04-01T21:16:17.477Z,25.50
2019-04-01T21:22:17.482Z,26.70
2019-04-01T21:28:17.398Z,23.00
2019-04-01T21:34:17.489Z,22.80
2019-04-01T21:40:17.519Z,31.00
2019-04-01T21:46:17.453Z,25.00
2019-04-01T21:52:18.502Z,25.90
2019-04-01T21:58:17.511Z,25.10
2019-04-01T22:04:17.505Z,22.80
2019-04-01T22:10:17.443Z,33.70
2019-04-01T22:16:18.178Z,30.80
2019-04-01T22:22:17.484Z,27.50
2019-04-01T22:28:17.439Z,29.30
2019-04-01T22:34:17.439Z,27.20
2019-04-01T22:40:17.500Z,29.40
2019-04-01T22:46:18.337Z,30.30
2019-04-01T22:52:17.484Z,28.20
2019-04-01T22:58:17.478Z,29.00
2019-04-01T23:04:17.453Z,26.90
2019-04-01T23:10:17.517Z,28.70
2019-04-01T23:16:17.582Z,26.40
2019-04-01T23:22:17.699Z,25.70
2019-04-01T23:28:17.493Z,26.30
2019-04-01T23:34:17.697Z,28.60
2019-04-01T23:40:17.722Z,28.00
2019-04-01T23:46:18.929Z,25.40
2019-04-01T23:52:17.731Z,27.50
2019-04-01T23:58:17.741Z,27.20
